createdAt,value
2022-08-12T00:02:02.965Z,23.50
2022-08-12T00:04:53.035Z,23.40
2022-08-12T00:07:39.178Z,23.40
2022-08-12T00:10:26.805Z,23.40
2022-08-12T00:13:12.854Z,23.40
2022-08-12T00:16:02.523Z,23.30
2022-08-12T00:18:48.225Z,23.20
2022-08-12T00:21:36.885Z,23.20
2022-08-12T00:24:23.766Z,23.10
2022-08-12T00:27:11.346Z,23.00
2022-08-12T00:29:57.711Z,22.90
2022-08-12T00:32:54.911Z,22.90
2022-08-12T00:35:42.319Z,22.90
2022-08-12T00:38:27.999Z,22.80
2022-08-12T00:41:14.083Z,22.80
2022-08-12T00:43:44.981Z,22.70
2022-08-12T00:46:30.813Z,22.60
2022-08-12T00:48:59.126Z,22.60
2022-08-12T00:51:47.661Z,22.50
2022-08-12T00:54:16.814Z,22.50
2022-08-12T00:56:45.081Z,22.40
2022-08-12T00:59:14.962Z,22.40
2022-08-12T01:02:10.541Z,22.30
2022-08-12T01:04:53.591Z,22.30
2022-08-12T01:07:45.198Z,22.30
2022-08-12T01:10:32.594Z,22.20
2022-08-12T01:13:19.109Z,22.20
2022-08-12T01:16:00.644Z,22.20
2022-08-12T01:18:32.555Z,22.20
2022-08-12T01:21:12.038Z,22.20
2022-08-12T01:24:29.704Z,22.10
2022-08-12T01:27:08.288Z,22.00
2022-08-12T01:29:43.853Z,22.00
2022-08-12T01:32:14.907Z,21.90
2022-08-12T01:34:47.583Z,21.80
2022-08-12T01:37:20.267Z,21.80
2022-08-12T01:40:35.378Z,21.70
2022-08-12T01:42:48.319Z,21.70
2022-08-12T01:45:18.483Z,21.60
2022-08-12T01:48:05.688Z,21.50
2022-08-12T01:50:48.326Z,21.40
2022-08-12T01:53:20.892Z,21.40
2022-08-12T01:55:49.233Z,21.30
2022-08-12T01:58:29.857Z,21.30
2022-08-12T02:01:03.666Z,21.30
2022-08-12T02:04:19.492Z,21.30
2022-08-12T02:07:15.435Z,21.20
2022-08-12T02:10:49.320Z,21.20
2022-08-12T02:13:09.920Z,21.20
2022-08-12T02:15:49.878Z,21.20
2022-08-12T02:18:26.918Z,21.10
2022-08-12T02:21:02.374Z,21.00
2022-08-12T02:23:31.846Z,20.90
2022-08-12T02:26:04.246Z,20.90
2022-08-12T02:28:33.028Z,20.80
2022-08-12T02:31:06.394Z,20.80
2022-08-12T02:33:35.174Z,20.70
2022-08-12T02:36:05.140Z,20.70
2022-08-12T02:38:33.839Z,20.70
2022-08-12T02:41:04.868Z,20.70
2022-08-12T02:43:38.822Z,20.70
2022-08-12T02:46:14.714Z,20.60
2022-08-12T02:48:47.625Z,20.60
2022-08-12T02:51:20.673Z,20.50
2022-08-12T02:54:02.996Z,20.50
2022-08-12T02:56:37.622Z,20.50
2022-08-12T02:59:06.709Z,20.50
2022-08-12T03:01:47.744Z,20.50
2022-08-12T03:04:24.325Z,20.40
2022-08-12T03:07:00.613Z,20.40
2022-08-12T03:09:51.485Z,20.40
2022-08-12T03:12:24.485Z,20.30
2022-08-12T03:14:53.666Z,20.30
2022-08-12T03:17:30.298Z,20.20
2022-08-12T03:20:09.250Z,20.20
2022-08-12T03:22:40.572Z,20.10
2022-08-12T03:25:17.148Z,20.10
2022-08-12T03:27:49.676Z,20.10
2022-08-12T03:30:18.992Z,20.10
2022-08-12T03:32:50.715Z,20.00
2022-08-12T03:35:41.477Z,20.00
2022-08-12T03:38:15.974Z,19.90
2022-08-12T03:41:25.164Z,19.90
2022-08-12T03:44:17.249Z,19.80
2022-08-12T03:47:07.451Z,19.80
2022-08-12T03:49:54.703Z,19.80
2022-08-12T03:52:40.522Z,19.70
2022-08-12T03:55:27.114Z,19.70
2022-08-12T03:58:12.804Z,19.70
2022-08-12T04:00:40.803Z,19.70
2022-08-12T04:03:30.495Z,19.70
2022-08-12T04:05:59.956Z,19.70
2022-08-12T04:08:28.735Z,19.70
2022-08-12T04:11:19.880Z,19.70
2022-08-12T04:13:48.620Z,19.70
2022-08-12T04:16:18.093Z,19.80
2022-08-12T04:18:46.420Z,19.90
2022-08-12T04:21:15.649Z,19.90
2022-08-12T04:23:48.264Z,19.90
2022-08-12T04:26:17.188Z,19.90
2022-08-12T04:28:45.947Z,19.90
2022-08-12T04:31:14.152Z,20.00
2022-08-12T04:33:43.761Z,20.00
2022-08-12T04:36:11.832Z,20.00
2022-08-12T04:38:41.546Z,20.00
2022-08-12T04:41:10.821Z,20.00
2022-08-12T04:44:00.702Z,20.00
2022-08-12T04:46:30.723Z,20.00
2022-08-12T04:49:03.698Z,20.10
2022-08-12T04:51:31.942Z,20.10
2022-08-12T04:54:02.664Z,20.10
2022-08-12T04:56:35.388Z,20.10
2022-08-12T04:59:04.279Z,20.20
2022-08-12T05:01:32.819Z,20.30
2022-08-12T05:04:02.692Z,20.40
2022-08-12T05:06:30.601Z,20.50
2022-08-12T05:09:00.490Z,20.70
2022-08-12T05:11:29.875Z,21.00
2022-08-12T05:14:01.715Z,21.40
2022-08-12T05:16:32.593Z,22.10
2022-08-12T05:19:02.624Z,23.10
2022-08-12T05:21:30.764Z,24.10
2022-08-12T05:23:58.708Z,25.00
2022-08-12T05:26:27.054Z,25.80
2022-08-12T05:28:56.459Z,26.50
2022-08-12T05:31:40.371Z,27.20
2022-08-12T05:34:14.786Z,27.80
2022-08-12T05:36:44.115Z,28.50
2022-08-12T05:39:12.034Z,29.20
2022-08-12T05:41:40.206Z,29.80
2022-08-12T05:44:12.637Z,30.40
2022-08-12T05:46:41.190Z,31.00
2022-08-12T05:49:09.538Z,31.60
2022-08-12T05:51:40.108Z,32.20
2022-08-12T05:54:10.822Z,32.90
2022-08-12T05:56:40.080Z,33.40
2022-08-12T05:59:11.015Z,34.00
2022-08-12T06:02:11.619Z,34.60
2022-08-12T06:04:27.909Z,35.10
2022-08-12T06:06:55.837Z,35.30
2022-08-12T06:09:25.615Z,34.40
2022-08-12T06:12:04.782Z,32.80
2022-08-12T06:14:37.875Z,31.10
2022-08-12T06:17:08.976Z,29.40
2022-08-12T06:20:27.001Z,28.20
2022-08-12T06:22:26.656Z,27.10
2022-08-12T06:24:54.578Z,26.20
2022-08-12T06:27:22.605Z,25.60
2022-08-12T06:30:08.974Z,25.10
2022-08-12T06:32:52.004Z,24.70
2022-08-12T06:35:46.800Z,24.40
2022-08-12T06:38:17.496Z,24.20
2022-08-12T06:41:03.521Z,24.00
2022-08-12T06:44:04.287Z,23.90
2022-08-12T06:46:22.035Z,23.80
2022-08-12T06:48:55.088Z,23.70
2022-08-12T06:51:23.097Z,23.60
2022-08-12T06:53:51.095Z,23.60
2022-08-12T06:56:18.980Z,23.60
2022-08-12T06:58:46.869Z,23.60
2022-08-12T07:01:15.076Z,23.60
2022-08-12T07:03:44.428Z,23.50
2022-08-12T07:06:13.686Z,23.50
2022-08-12T07:08:43.979Z,23.50
2022-08-12T07:11:13.958Z,23.60
2022-08-12T07:14:02.533Z,23.60
2022-08-12T07:16:47.308Z,23.60
2022-08-12T07:19:16.808Z,23.60
2022-08-12T07:22:02.347Z,23.70
2022-08-12T07:24:30.877Z,23.70
2022-08-12T07:26:59.224Z,23.70
2022-08-12T07:29:58.182Z,23.70
2022-08-12T07:32:16.345Z,23.70
2022-08-12T07:34:47.313Z,23.70
2022-08-12T07:37:15.820Z,23.70
2022-08-12T07:39:49.913Z,23.80
2022-08-12T07:42:19.295Z,23.80
2022-08-12T07:44:47.358Z,23.90
2022-08-12T07:47:19.692Z,23.90
2022-08-12T07:50:03.406Z,23.90
2022-08-12T07:52:32.181Z,24.00
2022-08-12T07:55:01.366Z,24.00
2022-08-12T07:57:29.351Z,24.10
2022-08-12T07:59:57.254Z,24.10
2022-08-12T08:02:27.053Z,24.10
2022-08-12T08:05:00.507Z,24.20
2022-08-12T08:07:30.825Z,24.20
2022-08-12T08:10:00.627Z,24.30
2022-08-12T08:12:48.101Z,24.30
2022-08-12T08:15:17.105Z,24.30
2022-08-12T08:17:57.740Z,24.40
2022-08-12T08:20:29.329Z,24.40
2022-08-12T08:22:59.076Z,24.50
2022-08-12T08:25:37.102Z,24.60
2022-08-12T08:28:09.226Z,24.70
2022-08-12T08:30:39.704Z,24.70
2022-08-12T08:33:22.856Z,24.80
2022-08-12T08:36:00.720Z,24.80
2022-08-12T08:38:33.106Z,24.90
2022-08-12T08:42:19.113Z,24.90
2022-08-12T08:44:11.321Z,25.00
2022-08-12T08:46:39.565Z,25.10
2022-08-12T08:49:08.557Z,25.20
2022-08-12T08:51:38.904Z,25.20
2022-08-12T08:54:08.506Z,25.20
2022-08-12T08:56:43.824Z,25.30
2022-08-12T08:59:12.292Z,25.40
2022-08-12T09:01:40.685Z,25.40
2022-08-12T09:05:09.237Z,25.50
2022-08-12T09:07:17.266Z,25.50
2022-08-12T09:10:02.226Z,25.60
2022-08-12T09:12:51.652Z,25.70
2022-08-12T09:18:12.766Z,25.80
2022-08-12T09:20:43.151Z,25.80
2022-08-12T09:24:00.123Z,25.90
2022-08-12T09:28:52.786Z,26.00
2022-08-12T09:32:03.887Z,26.00
2022-08-12T09:34:25.312Z,26.00
2022-08-12T09:37:01.656Z,26.00
2022-08-12T09:40:01.828Z,26.10
2022-08-12T09:42:43.328Z,26.20
2022-08-12T09:45:23.445Z,26.20
2022-08-12T09:47:59.391Z,26.20
2022-08-12T09:50:28.401Z,26.20
2022-08-12T09:53:14.992Z,26.20
2022-08-12T09:56:01.269Z,26.30
2022-08-12T09:58:57.457Z,26.30
2022-08-12T10:01:25.356Z,26.40
2022-08-12T10:04:04.908Z,26.40
2022-08-12T10:06:36.646Z,26.50
2022-08-12T10:09:21.675Z,26.50
2022-08-12T10:12:12.955Z,26.60
2022-08-12T10:14:50.545Z,26.60
2022-08-12T10:17:22.706Z,26.60
2022-08-12T10:19:52.579Z,26.60
2022-08-12T10:22:36.587Z,26.60
2022-08-12T10:26:18.414Z,26.60
2022-08-12T10:28:34.013Z,26.70
2022-08-12T10:31:05.182Z,26.80
2022-08-12T10:33:50.657Z,26.80
2022-08-12T10:36:36.357Z,26.90
2022-08-12T10:40:00.164Z,26.80
2022-08-12T10:42:45.917Z,26.80
2022-08-12T10:45:14.303Z,26.90
2022-08-12T10:48:07.697Z,26.90
2022-08-12T10:51:01.680Z,27.00
2022-08-12T10:53:45.129Z,27.00
2022-08-12T10:56:15.466Z,27.10
2022-08-12T10:58:46.166Z,27.10
2022-08-12T11:01:50.331Z,27.10
2022-08-12T11:04:23.879Z,27.20
2022-08-12T11:07:06.338Z,27.20
2022-08-12T11:09:56.457Z,27.30
2022-08-12T11:12:56.299Z,27.30
2022-08-12T11:15:24.299Z,27.40
2022-08-12T11:18:17.947Z,27.40
2022-08-12T11:20:48.259Z,27.40
2022-08-12T11:23:25.487Z,27.50
2022-08-12T11:26:06.519Z,27.50
2022-08-12T11:28:37.035Z,27.60
2022-08-12T11:31:09.847Z,27.60
2022-08-12T11:34:06.771Z,27.60
2022-08-12T11:36:40.682Z,27.70
2022-08-12T11:39:12.367Z,27.60
2022-08-12T11:41:40.500Z,27.60
2022-08-12T11:44:35.608Z,27.60
2022-08-12T11:46:59.068Z,27.70
2022-08-12T11:49:31.993Z,27.80
2022-08-12T11:52:02.248Z,27.90
2022-08-12T11:54:30.962Z,27.90
2022-08-12T11:57:01.894Z,27.90
2022-08-12T12:02:21.434Z,27.90
2022-08-12T12:04:52.772Z,27.90
2022-08-12T12:08:36.579Z,27.90
2022-08-12T12:10:12.826Z,27.90
2022-08-12T12:12:41.442Z,27.90
2022-08-12T12:15:25.429Z,27.90
2022-08-12T12:18:05.413Z,28.00
2022-08-12T12:20:36.259Z,28.10
2022-08-12T12:23:04.265Z,28.10
2022-08-12T12:26:07.210Z,28.10
2022-08-12T12:28:37.698Z,28.20
2022-08-12T12:31:15.255Z,28.20
2022-08-12T12:33:58.298Z,28.10
2022-08-12T12:36:30.684Z,28.20
2022-08-12T12:39:00.296Z,28.20
2022-08-12T12:42:45.327Z,28.20
2022-08-12T12:44:25.493Z,28.20
2022-08-12T12:46:58.480Z,28.20
2022-08-12T12:49:28.974Z,28.20
2022-08-12T12:52:19.727Z,28.20
2022-08-12T12:54:52.862Z,28.20
2022-08-12T12:57:21.609Z,28.20
2022-08-12T13:00:16.668Z,28.30
2022-08-12T13:02:53.876Z,28.30
2022-08-12T13:05:27.817Z,28.30
2022-08-12T13:08:01.034Z,28.40
2022-08-12T13:10:37.092Z,28.50
2022-08-12T13:14:07.878Z,28.40
2022-08-12T13:15:59.311Z,28.40
2022-08-12T13:18:31.470Z,28.40
2022-08-12T13:20:59.845Z,28.30
2022-08-12T13:23:36.316Z,28.30
2022-08-12T13:26:07.668Z,28.40
2022-08-12T13:28:46.452Z,28.40
2022-08-12T13:31:24.957Z,28.50
2022-08-12T13:34:28.637Z,28.50
2022-08-12T13:36:43.885Z,28.50
2022-08-12T13:39:16.325Z,28.60
2022-08-12T13:41:44.584Z,28.60
2022-08-12T13:44:12.983Z,28.60
2022-08-12T13:46:42.154Z,28.60
2022-08-12T13:49:20.443Z,28.60
2022-08-12T13:52:01.637Z,28.60
2022-08-12T13:54:30.997Z,28.70
2022-08-12T13:56:58.878Z,28.70
2022-08-12T13:59:28.632Z,28.70
2022-08-12T14:02:17.584Z,28.80
2022-08-12T14:04:45.701Z,28.80
2022-08-12T14:07:25.943Z,28.80
2022-08-12T14:10:16.057Z,28.80
2022-08-12T14:12:54.566Z,28.80
2022-08-12T14:15:36.499Z,28.80
2022-08-12T14:18:13.985Z,28.90
2022-08-12T14:20:47.629Z,29.10
2022-08-12T14:24:05.745Z,29.10
2022-08-12T14:26:12.006Z,29.20
2022-08-12T14:28:45.462Z,29.20
2022-08-12T14:31:31.554Z,29.20
2022-08-12T14:34:00.154Z,29.20
2022-08-12T14:36:34.207Z,29.20
2022-08-12T14:39:04.804Z,29.20
2022-08-12T14:41:37.252Z,29.10
2022-08-12T14:44:58.278Z,29.10
2022-08-12T14:47:07.575Z,29.00
2022-08-12T14:50:33.578Z,29.00
2022-08-12T14:52:56.473Z,28.90
2022-08-12T14:58:02.758Z,28.90
2022-08-12T15:00:52.158Z,29.00
2022-08-12T15:03:52.117Z,29.00
2022-08-12T15:06:38.964Z,29.00
2022-08-12T15:09:11.851Z,29.00
2022-08-12T15:11:54.355Z,29.10
2022-08-12T15:14:26.604Z,29.20
2022-08-12T15:16:55.826Z,29.20
2022-08-12T15:20:31.858Z,29.20
2022-08-12T15:22:37.169Z,29.30
2022-08-12T15:25:07.446Z,29.30
2022-08-12T15:28:04.392Z,29.30
2022-08-12T15:30:33.785Z,29.30
2022-08-12T15:33:12.192Z,29.30
2022-08-12T15:35:52.807Z,29.30
2022-08-12T15:38:25.016Z,29.30
2022-08-12T15:40:54.912Z,29.30
2022-08-12T15:44:16.051Z,29.40
2022-08-12T15:46:15.591Z,29.40
2022-08-12T15:48:46.420Z,29.50
2022-08-12T15:51:57.609Z,29.50
2022-08-12T15:54:30.985Z,29.50
2022-08-12T15:57:03.235Z,29.50
2022-08-12T15:59:32.699Z,29.50
2022-08-12T16:02:21.165Z,29.50
2022-08-12T16:04:50.464Z,29.50
2022-08-12T16:07:26.214Z,29.50
2022-08-12T16:10:05.586Z,29.50
2022-08-12T16:12:43.544Z,29.60
2022-08-12T16:15:26.187Z,29.60
2022-08-12T16:18:25.875Z,29.70
2022-08-12T16:20:47.231Z,29.70
2022-08-12T16:23:26.248Z,29.70
2022-08-12T16:26:05.712Z,29.70
2022-08-12T16:28:38.855Z,29.70
2022-08-12T16:31:09.783Z,29.60
2022-08-12T16:34:00.408Z,29.60
2022-08-12T16:36:29.991Z,29.60
2022-08-12T16:39:01.420Z,29.60
2022-08-12T16:41:39.761Z,29.60
2022-08-12T16:44:08.851Z,29.60
2022-08-12T16:46:37.957Z,29.50
2022-08-12T16:49:08.942Z,29.50
2022-08-12T16:51:47.023Z,29.50
2022-08-12T16:54:17.224Z,29.50
2022-08-12T16:56:55.507Z,29.50
2022-08-12T16:59:31.167Z,29.50
2022-08-12T17:02:31.583Z,29.50
2022-08-12T17:05:05.572Z,29.50
2022-08-12T17:07:43.434Z,29.50
2022-08-12T17:10:14.022Z,29.50
2022-08-12T17:12:46.608Z,29.50
2022-08-12T17:15:50.730Z,29.50
2022-08-12T17:18:39.285Z,29.50
2022-08-12T17:20:57.644Z,29.40
2022-08-12T17:23:47.966Z,29.40
2022-08-12T17:26:18.496Z,29.40
2022-08-12T17:28:52.624Z,29.30
2022-08-12T17:31:59.784Z,29.30
2022-08-12T17:34:30.398Z,29.30
2022-08-12T17:37:05.067Z,29.30
2022-08-12T17:40:15.599Z,29.20
2022-08-12T17:42:32.955Z,29.20
2022-08-12T17:45:17.130Z,29.20
2022-08-12T17:48:04.701Z,29.10
2022-08-12T17:50:36.927Z,29.10
2022-08-12T17:53:10.833Z,29.00
2022-08-12T17:55:47.404Z,28.90
2022-08-12T17:58:17.991Z,28.90
2022-08-12T18:00:50.502Z,28.80
2022-08-12T18:03:57.126Z,28.80
2022-08-12T18:06:13.958Z,28.70
2022-08-12T18:08:54.740Z,28.60
2022-08-12T18:12:05.863Z,28.60
2022-08-12T18:14:30.390Z,28.60
2022-08-12T18:17:01.637Z,28.50
2022-08-12T18:20:04.274Z,28.50
2022-08-12T18:22:22.165Z,28.40
2022-08-12T18:25:04.158Z,28.40
2022-08-12T18:27:45.680Z,28.30
2022-08-12T18:30:29.388Z,28.30
2022-08-12T18:33:03.713Z,28.20
2022-08-12T18:35:47.184Z,28.10
2022-08-12T18:38:22.363Z,28.00
2022-08-12T18:41:10.374Z,28.00
2022-08-12T18:43:59.452Z,27.90
2022-08-12T18:46:34.995Z,27.80
2022-08-12T18:49:17.929Z,27.70
2022-08-12T18:51:55.485Z,27.60
2022-08-12T18:54:32.305Z,27.50
2022-08-12T18:57:16.166Z,27.40
2022-08-12T19:00:02.163Z,27.30
2022-08-12T19:02:39.706Z,27.20
2022-08-12T19:05:10.813Z,27.20
2022-08-12T19:07:49.353Z,27.10
2022-08-12T19:10:29.360Z,27.00
2022-08-12T19:13:23.417Z,26.90
2022-08-12T19:15:54.313Z,26.80
2022-08-12T19:18:30.166Z,26.70
2022-08-12T19:21:00.342Z,26.50
2022-08-12T19:23:35.772Z,26.40
2022-08-12T19:26:03.808Z,26.30
2022-08-12T19:28:36.397Z,26.20
2022-08-12T19:31:55.603Z,26.10
2022-08-12T19:34:56.444Z,25.90
2022-08-12T19:37:22.975Z,25.80
2022-08-12T19:40:08.019Z,25.80
2022-08-12T19:42:44.921Z,25.70
2022-08-12T19:45:17.843Z,25.70
2022-08-12T19:47:46.609Z,25.80
2022-08-12T19:50:20.077Z,25.70
2022-08-12T19:52:51.270Z,25.70
2022-08-12T19:55:23.374Z,25.70
2022-08-12T19:58:01.734Z,25.60
2022-08-12T20:00:34.984Z,25.60
2022-08-12T20:03:07.577Z,25.60
2022-08-12T20:06:06.584Z,25.60
2022-08-12T20:08:33.201Z,25.60
2022-08-12T20:12:12.013Z,25.60
2022-08-12T20:14:01.414Z,25.50
2022-08-12T20:16:57.306Z,25.50
2022-08-12T20:19:53.013Z,25.50
2022-08-12T20:22:23.441Z,25.40
2022-08-12T20:24:55.374Z,25.30
2022-08-12T20:27:29.045Z,25.30
2022-08-12T20:30:14.003Z,25.20
2022-08-12T20:32:53.705Z,25.20
2022-08-12T20:35:24.764Z,25.20
2022-08-12T20:38:06.659Z,25.10
2022-08-12T20:40:38.017Z,25.10
2022-08-12T20:43:06.856Z,25.00
2022-08-12T20:45:50.906Z,24.90
2022-08-12T20:48:25.519Z,24.90
2022-08-12T20:50:56.735Z,24.90
2022-08-12T20:53:26.604Z,24.80
2022-08-12T20:56:01.413Z,24.80
2022-08-12T20:58:29.600Z,24.70
2022-08-12T21:01:00.070Z,24.70
2022-08-12T21:03:52.750Z,24.60
2022-08-12T21:06:43.685Z,24.50
2022-08-12T21:09:11.628Z,24.40
2022-08-12T21:11:39.526Z,24.30
2022-08-12T21:14:10.520Z,24.30
2022-08-12T21:16:39.194Z,24.20
2022-08-12T21:19:11.911Z,24.10
2022-08-12T21:21:53.767Z,24.00
2022-08-12T21:24:32.313Z,23.80
2022-08-12T21:27:00.832Z,23.60
2022-08-12T21:29:40.198Z,23.60
2022-08-12T21:32:46.825Z,23.60
2022-08-12T21:35:10.548Z,23.60
2022-08-12T21:37:53.020Z,23.60
2022-08-12T21:40:22.073Z,23.60
2022-08-12T21:43:07.611Z,23.60
2022-08-12T21:45:45.846Z,23.60
2022-08-12T21:48:28.092Z,23.50
2022-08-12T21:50:57.495Z,23.50
2022-08-12T21:53:31.742Z,23.50
2022-08-12T21:56:34.091Z,23.40
2022-08-12T21:59:03.008Z,23.40
2022-08-12T22:01:36.624Z,23.40
2022-08-12T22:04:34.824Z,23.40
2022-08-12T22:07:04.499Z,23.40
2022-08-12T22:09:43.554Z,23.40
2022-08-12T22:12:29.638Z,23.40
2022-08-12T22:14:57.543Z,23.40
2022-08-12T22:17:33.695Z,23.40
2022-08-12T22:20:18.135Z,23.40
2022-08-12T22:22:56.313Z,23.40
2022-08-12T22:25:27.631Z,23.40
2022-08-12T22:28:13.412Z,23.40
2022-08-12T22:30:59.339Z,23.40
2022-08-12T22:33:27.300Z,23.40
2022-08-12T22:35:59.370Z,23.30
2022-08-12T22:38:29.986Z,23.30
2022-08-12T22:41:00.985Z,23.20
2022-08-12T22:44:01.182Z,23.20
2022-08-12T22:46:52.761Z,23.20
2022-08-12T22:49:36.589Z,23.10
2022-08-12T22:52:12.471Z,23.00
2022-08-12T22:54:46.039Z,23.00
2022-08-12T22:57:53.364Z,23.00
2022-08-12T23:00:27.201Z,22.90
2022-08-12T23:03:00.826Z,22.90
2022-08-12T23:05:57.255Z,22.90
2022-08-12T23:08:21.961Z,22.80
2022-08-12T23:10:51.910Z,22.70
2022-08-12T23:13:42.997Z,22.70
2022-08-12T23:16:29.545Z,22.70
2022-08-12T23:19:09.335Z,22.60
2022-08-12T23:22:03.325Z,22.60
2022-08-12T23:24:27.028Z,22.60
2022-08-12T23:27:14.344Z,22.50
2022-08-12T23:29:42.826Z,22.50
2022-08-12T23:32:13.371Z,22.50
2022-08-12T23:35:02.629Z,22.50
2022-08-12T23:37:46.575Z,22.40
2022-08-12T23:40:17.578Z,22.40
2022-08-12T23:42:47.637Z,22.40
2022-08-12T23:45:20.424Z,22.40
2022-08-12T23:47:59.876Z,22.30
2022-08-12T23:50:34.386Z,22.20
2022-08-12T23:53:06.709Z,22.20
2022-08-12T23:55:45.580Z,22.10
2022-08-12T23:58:21.133Z,22.10
